Time;durP1;ratioP1;P1;durP2;ratioP2;P2;SDS_P1;SDS_P2;PMS_P1;PMS_P2;Temp;Humidity;BMP_temperature;BMP_pressure;BME280_temperature;BME280_humidity;BME280_pressure;Samples;Min_cycle;Max_cycle;Signal;HPM_P1;HPM_P2
2022/04/17 00:00:48;;;;;;;7.95;4.65;;;3.80;99.90;;;;;;5015960;28;20073;-78
2022/04/17 00:03:14;;;;;;;7.10;4.43;;;3.80;99.90;;;;;;5008131;28;20049;-79
2022/04/17 00:05:40;;;;;;;6.93;4.72;;;3.80;99.90;;;;;;5010076;28;20094;-79
2022/04/17 00:08:06;;;;;;;8.40;4.65;;;3.80;99.90;;;;;;5013967;28;20040;-78
2022/04/17 00:10:31;;;;;;;9.75;4.78;;;3.80;99.90;;;;;;4997387;28;20437;-77
2022/04/17 00:12:58;;;;;;;6.93;4.38;;;3.80;99.90;;;;;;4998649;28;20041;-77
2022/04/17 00:15:24;;;;;;;7.78;4.60;;;3.80;99.90;;;;;;5026917;28;20077;-82
2022/04/17 00:17:49;;;;;;;6.35;4.32;;;3.80;99.90;;;;;;5012471;28;20053;-77
2022/04/17 00:20:17;;;;;;;5.68;4.65;;;3.80;99.90;;;;;;5022959;28;20052;-77
2022/04/17 00:22:43;;;;;;;8.05;5.13;;;3.80;99.90;;;;;;5011231;28;20046;-77
2022/04/17 00:25:10;;;;;;;8.25;5.40;;;3.80;99.90;;;;;;5010747;28;20037;-77
2022/04/17 00:27:36;;;;;;;7.93;5.30;;;3.80;99.90;;;;;;5015605;28;20041;-79
2022/04/17 00:30:03;;;;;;;8.88;5.38;;;3.80;99.90;;;;;;5022027;28;20077;-77
2022/04/17 00:32:31;;;;;;;9.45;5.47;;;3.70;99.90;;;;;;5026820;28;20039;-77
2022/04/17 00:34:57;;;;;;;8.85;5.82;;;3.70;99.90;;;;;;5007072;28;20042;-76
2022/04/17 00:37:23;;;;;;;7.38;5.35;;;3.70;99.90;;;;;;4979607;28;20135;-81
2022/04/17 00:39:49;;;;;;;7.05;5.25;;;3.70;99.90;;;;;;5013399;28;20132;-77
2022/04/17 00:42:14;;;;;;;8.60;5.65;;;3.70;99.90;;;;;;4996107;28;20478;-79
2022/04/17 00:44:40;;;;;;;8.05;5.35;;;3.70;99.90;;;;;;4997258;28;20068;-76
2022/04/17 00:47:08;;;;;;;8.02;5.25;;;3.80;99.90;;;;;;5011237;28;20117;-78
2022/04/17 00:49:34;;;;;;;10.57;6.05;;;3.70;99.90;;;;;;5019102;28;20127;-77
2022/04/17 00:52:00;;;;;;;8.88;5.88;;;3.70;99.90;;;;;;5013478;28;20131;-77
2022/04/17 00:54:28;;;;;;;8.90;5.60;;;3.80;99.90;;;;;;5010993;28;20052;-82
2022/04/17 00:56:55;;;;;;;8.95;5.90;;;3.80;99.90;;;;;;5009862;28;20064;-77
2022/04/17 00:59:22;;;;;;;10.30;6.57;;;3.80;99.90;;;;;;5034621;28;20095;-77
2022/04/17 01:01:48;;;;;;;9.98;5.93;;;3.80;99.90;;;;;;5045822;28;20087;-78
2022/04/17 01:04:14;;;;;;;8.90;5.75;;;3.80;99.90;;;;;;4994481;28;20048;-77
2022/04/17 01:06:40;;;;;;;10.10;6.15;;;3.80;99.90;;;;;;5030070;28;20044;-76
2022/04/17 01:09:06;;;;;;;9.00;5.93;;;3.80;99.90;;;;;;5026824;28;20041;-77
2022/04/17 01:11:32;;;;;;;8.95;5.78;;;3.80;99.90;;;;;;5029745;28;20033;-77
2022/04/17 01:13:58;;;;;;;11.30;6.40;;;3.80;99.90;;;;;;5013664;28;20041;-77
2022/04/17 01:16:25;;;;;;;8.63;6.22;;;3.70;99.90;;;;;;5013239;28;20060;-77
2022/04/17 01:19:11;;;;;;;10.90;6.40;;;3.70;99.90;;;;;;4999430;28;20053;-77
2022/04/17 01:21:38;;;;;;;10.45;6.57;;;3.70;99.90;;;;;;5014438;28;20036;-77
2022/04/17 01:26:57;;;;;;;10.50;7.15;;;3.70;99.90;;;;;;5029226;28;20051;-80
2022/04/17 01:29:34;;;;;;;11.32;6.80;;;3.70;99.90;;;;;;5019234;28;20049;-77
2022/04/17 01:32:02;;;;;;;10.65;6.45;;;3.60;99.90;;;;;;5024293;28;20114;-77
2022/04/17 01:34:28;;;;;;;11.55;7.13;;;3.60;99.90;;;;;;5027689;28;20079;-82
2022/04/17 01:36:54;;;;;;;13.20;6.68;;;3.60;99.90;;;;;;5012035;28;20123;-81
2022/04/17 01:39:20;;;;;;;10.50;6.85;;;3.60;99.90;;;;;;5029167;28;20033;-76
2022/04/17 01:41:47;;;;;;;14.05;6.82;;;3.60;99.90;;;;;;5023526;28;20053;-78
2022/04/17 01:44:16;;;;;;;10.82;6.78;;;3.70;99.90;;;;;;5024423;28;20127;-80
2022/04/17 01:46:42;;;;;;;10.60;6.35;;;3.60;99.90;;;;;;5025228;28;20459;-76
2022/04/17 01:49:07;;;;;;;18.92;7.65;;;3.60;99.90;;;;;;5011470;28;20106;-79
2022/04/17 01:51:38;;;;;;;10.55;7.18;;;3.50;99.90;;;;;;4995602;28;20416;-79
2022/04/17 01:54:08;;;;;;;10.80;6.55;;;3.50;99.90;;;;;;5018614;28;20041;-77
2022/04/17 01:56:35;;;;;;;13.52;7.75;;;3.50;99.90;;;;;;5030041;28;20096;-77
2022/04/17 01:59:01;;;;;;;11.50;7.57;;;3.50;99.90;;;;;;5009811;28;20127;-78
2022/04/17 02:01:27;;;;;;;10.07;7.05;;;3.40;99.90;;;;;;5007629;28;20052;-77
2022/04/17 02:03:53;;;;;;;9.07;6.55;;;3.40;99.90;;;;;;5025312;28;20043;-77
2022/04/17 02:06:18;;;;;;;11.90;7.35;;;3.40;99.90;;;;;;5028196;28;20044;-77
2022/04/17 02:08:44;;;;;;;12.02;6.95;;;3.30;99.90;;;;;;5028691;28;20040;-77
2022/04/17 02:11:10;;;;;;;12.88;7.75;;;3.30;99.90;;;;;;5006943;28;20132;-77
2022/04/17 02:13:36;;;;;;;10.90;7.60;;;3.30;99.90;;;;;;5007969;28;20436;-77
2022/04/17 02:16:03;;;;;;;11.75;6.90;;;3.20;99.90;;;;;;5028972;28;20036;-77
2022/04/17 02:18:29;;;;;;;14.63;7.75;;;3.20;99.90;;;;;;5033086;28;20040;-77
2022/04/17 02:20:54;;;;;;;9.98;7.80;;;3.20;99.90;;;;;;4992553;28;20044;-77
2022/04/17 02:23:20;;;;;;;10.85;7.50;;;3.30;99.90;;;;;;5027499;28;20493;-77
2022/04/17 02:28:22;;;;;;;12.68;7.97;;;3.30;99.90;;;;;;5137182;22;20056;-86
2022/04/17 02:30:47;;;;;;;11.52;7.72;;;3.30;99.90;;;;;;4993473;28;20045;-85
2022/04/17 02:33:13;;;;;;;13.88;7.55;;;3.30;99.90;;;;;;4982277;28;20119;-85
2022/04/17 02:35:38;;;;;;;12.05;7.45;;;3.30;99.90;;;;;;5004975;28;20037;-85
2022/04/17 02:38:04;;;;;;;12.18;7.55;;;3.30;99.90;;;;;;4997958;28;20025;-84
2022/04/17 02:40:30;;;;;;;10.73;7.38;;;3.30;99.90;;;;;;4995355;28;20049;-86
2022/04/17 02:42:58;;;;;;;12.60;7.85;;;3.30;99.90;;;;;;5013758;28;20046;-85
2022/04/17 02:45:23;;;;;;;12.70;7.70;;;3.30;99.90;;;;;;5013100;28;20041;-84
2022/04/17 02:47:51;;;;;;;12.98;8.13;;;3.20;99.90;;;;;;4996187;28;20057;-85
2022/04/17 02:50:20;;;;;;;13.15;8.07;;;3.20;99.90;;;;;;4985658;28;20133;-84
2022/04/17 02:52:47;;;;;;;12.38;8.18;;;3.10;99.90;;;;;;5010767;28;20045;-85
2022/04/17 02:55:13;;;;;;;15.35;8.32;;;3.00;99.90;;;;;;5019437;28;20045;-85
2022/04/17 02:57:39;;;;;;;14.20;8.80;;;3.00;99.90;;;;;;4994296;28;20041;-85
2022/04/17 03:00:07;;;;;;;11.35;8.45;;;2.90;99.90;;;;;;5011799;28;20064;-85
2022/04/17 03:05:37;;;;;;;12.70;8.43;;;2.70;99.90;;;;;;5014907;28;20073;-85
2022/04/17 03:08:04;;;;;;;14.13;8.25;;;2.60;99.90;;;;;;5019276;28;20037;-85
2022/04/17 03:10:30;;;;;;;12.50;8.70;;;2.60;99.90;;;;;;5016515;28;20060;-85
2022/04/17 03:12:56;;;;;;;16.17;8.45;;;2.50;99.90;;;;;;5016153;28;20037;-84
2022/04/17 03:15:22;;;;;;;11.90;8.10;;;2.40;99.90;;;;;;5020939;28;20039;-85
2022/04/17 03:17:48;;;;;;;17.38;8.60;;;2.50;99.90;;;;;;5017959;28;20045;-86
2022/04/17 03:20:14;;;;;;;11.95;8.68;;;2.40;99.90;;;;;;4999827;28;20056;-85
2022/04/17 03:22:41;;;;;;;12.02;8.63;;;2.30;99.90;;;;;;5017898;28;20044;-87
2022/04/17 03:25:08;;;;;;;13.02;8.15;;;2.20;99.90;;;;;;5008904;28;20740;-86
2022/04/17 03:27:33;;;;;;;13.48;8.23;;;2.10;99.90;;;;;;5001519;28;20808;-85
2022/04/17 03:29:59;;;;;;;12.98;9.80;;;2.10;99.90;;;;;;5026888;28;20119;-87
2022/04/17 03:32:25;;;;;;;13.43;8.23;;;2.00;99.90;;;;;;4990268;28;20095;-87
2022/04/17 03:34:50;;;;;;;12.15;8.65;;;1.90;99.90;;;;;;5006785;28;20107;-85
2022/04/17 03:37:16;;;;;;;14.68;8.40;;;1.80;99.90;;;;;;5019166;28;20042;-87
2022/04/17 03:39:43;;;;;;;13.35;9.18;;;1.80;99.90;;;;;;5013085;28;20083;-86
2022/04/17 03:42:09;;;;;;;10.73;7.90;;;1.80;99.90;;;;;;5000468;28;20141;-87
2022/04/17 03:44:34;;;;;;;14.38;8.52;;;1.80;99.90;;;;;;4986576;28;20124;-84
2022/04/17 03:47:03;;;;;;;13.30;8.30;;;1.70;99.90;;;;;;4984679;28;20080;-87
2022/04/17 03:49:31;;;;;;;12.23;8.35;;;1.70;99.90;;;;;;5021982;28;20044;-87
2022/04/17 03:51:57;;;;;;;13.63;9.27;;;1.60;99.90;;;;;;5010258;28;20219;-84
2022/04/17 03:54:23;;;;;;;11.55;8.35;;;1.60;99.90;;;;;;5004745;28;20131;-86
2022/04/17 03:56:49;;;;;;;16.48;8.82;;;1.60;99.90;;;;;;4984542;28;20049;-85
2022/04/17 03:59:14;;;;;;;11.30;8.57;;;1.70;99.90;;;;;;5006171;28;20041;-86
2022/04/17 04:01:40;;;;;;;12.70;8.63;;;1.70;99.90;;;;;;5017472;28;20060;-86
2022/04/17 04:04:06;;;;;;;13.65;9.07;;;1.70;99.90;;;;;;4996653;28;20060;-86
2022/04/17 04:06:33;;;;;;;13.45;8.77;;;1.60;99.90;;;;;;4996998;28;20092;-87
2022/04/17 04:08:58;;;;;;;15.15;8.98;;;1.60;99.90;;;;;;4989144;28;20045;-87
2022/04/17 04:11:24;;;;;;;12.60;9.07;;;1.50;99.90;;;;;;5012414;28;20049;-87
2022/04/17 04:13:50;;;;;;;12.25;8.68;;;1.40;99.90;;;;;;5021294;28;20047;-84
2022/04/17 04:16:16;;;;;;;12.60;8.80;;;1.40;99.90;;;;;;4986065;28;20053;-85
2022/04/17 04:18:42;;;;;;;12.75;8.90;;;1.30;99.90;;;;;;5012998;28;20538;-87
2022/04/17 04:21:08;;;;;;;13.05;8.73;;;1.20;99.90;;;;;;5023561;28;20144;-88
2022/04/17 04:23:35;;;;;;;13.93;9.60;;;1.20;99.90;;;;;;4966850;28;20119;-85
2022/04/17 04:26:01;;;;;;;12.68;8.65;;;1.10;99.90;;;;;;4976862;28;20060;-86
2022/04/17 04:28:33;;;;;;;14.68;9.30;;;1.10;99.90;;;;;;5015068;28;20066;-87
2022/04/17 04:31:05;;;;;;;13.25;8.35;;;1.10;99.90;;;;;;4977724;28;20398;-87
2022/04/17 04:33:32;;;;;;;13.40;9.35;;;1.00;99.90;;;;;;5001276;28;20140;-85
2022/04/17 04:36:01;;;;;;;16.35;9.35;;;1.00;99.90;;;;;;4992008;28;20053;-85
2022/04/17 04:38:27;;;;;;;11.25;8.82;;;0.90;99.90;;;;;;5005519;28;20041;-86
2022/04/17 04:40:56;;;;;;;13.07;8.43;;;1.00;99.90;;;;;;4973350;28;20083;-86
2022/04/17 04:43:21;;;;;;;15.80;9.45;;;1.10;99.90;;;;;;4981605;28;20042;-86
2022/04/17 04:46:29;;;;;;;13.27;8.27;;;1.20;99.90;;;;;;4998847;28;20060;-87
2022/04/17 04:51:25;;;;;;;15.77;8.73;;;1.20;99.90;;;;;;5021512;28;20045;-87
2022/04/17 04:53:52;;;;;;;14.38;9.00;;;1.20;99.90;;;;;;5008569;28;20046;-85
2022/04/17 04:56:18;;;;;;;15.55;8.75;;;1.30;99.90;;;;;;5008845;28;20065;-86
2022/04/17 04:58:44;;;;;;;14.93;9.43;;;1.30;99.90;;;;;;5008157;28;20053;-86
2022/04/17 05:01:11;;;;;;;13.27;8.70;;;1.40;99.90;;;;;;4983084;28;20179;-86
2022/04/17 05:03:37;;;;;;;18.00;10.48;;;1.40;99.90;;;;;;4996550;28;20037;-85
2022/04/17 05:06:03;;;;;;;15.88;9.50;;;1.30;99.90;;;;;;5011377;28;20084;-86
2022/04/17 05:08:29;;;;;;;16.85;8.93;;;1.30;99.90;;;;;;4995180;28;20076;-85
2022/04/17 05:10:55;;;;;;;12.88;8.80;;;1.30;99.90;;;;;;5005880;28;20046;-86
2022/04/17 05:13:21;;;;;;;17.17;9.90;;;1.30;99.90;;;;;;5009807;28;20199;-85
2022/04/17 05:15:47;;;;;;;16.48;9.85;;;1.30;99.90;;;;;;5000108;28;20137;-86
2022/04/17 05:18:13;;;;;;;14.73;9.35;;;1.30;99.90;;;;;;5011404;28;20046;-86
2022/04/17 05:20:40;;;;;;;13.88;9.68;;;1.30;99.90;;;;;;4989101;28;20155;-87
2022/04/17 05:23:22;;;;;;;14.88;10.20;;;1.30;99.90;;;;;;5016034;28;20064;-84
2022/04/17 05:25:51;;;;;;;15.90;9.80;;;1.40;99.90;;;;;;5004246;28;20059;-86
2022/04/17 05:28:18;;;;;;;13.20;9.60;;;1.40;99.90;;;;;;4998097;28;20054;-83
2022/04/17 05:30:44;;;;;;;17.98;10.10;;;1.50;99.90;;;;;;4987477;28;20050;-84
2022/04/17 05:33:11;;;;;;;14.43;10.30;;;1.70;99.90;;;;;;4974955;28;20061;-86
2022/04/17 05:35:37;;;;;;;14.80;10.40;;;1.80;99.90;;;;;;4992343;28;20042;-86
2022/04/17 05:38:04;;;;;;;13.45;9.45;;;1.90;99.90;;;;;;5002798;28;20498;-86
2022/04/17 05:40:35;;;;;;;15.55;9.50;;;2.10;99.90;;;;;;5005871;28;20081;-86
2022/04/17 05:43:02;;;;;;;13.45;9.63;;;2.30;99.90;;;;;;4974274;28;20176;-84
2022/04/17 05:45:28;;;;;;;12.80;9.25;;;2.50;99.90;;;;;;5005765;28;20045;-84
2022/04/17 05:47:56;;;;;;;13.35;9.35;;;2.70;99.90;;;;;;4971974;28;23283;-84
2022/04/17 05:50:21;;;;;;;11.75;8.80;;;3.00;99.90;;;;;;4988155;28;20045;-84
2022/04/17 05:52:47;;;;;;;14.98;9.23;;;3.20;99.90;;;;;;5010242;28;20454;-86
2022/04/17 05:55:14;;;;;;;16.33;10.05;;;3.40;99.90;;;;;;4995628;28;20057;-86
2022/04/17 05:57:41;;;;;;;13.27;9.80;;;3.70;99.90;;;;;;4992591;28;20050;-86
2022/04/17 06:00:08;;;;;;;13.40;10.35;;;4.00;99.90;;;;;;5013854;28;20049;-85
2022/04/17 06:02:38;;;;;;;15.30;10.10;;;4.20;99.90;;;;;;5010386;28;20049;-86
2022/04/17 06:05:05;;;;;;;13.88;10.45;;;4.50;99.90;;;;;;5010777;28;20057;-85
2022/04/17 06:07:31;;;;;;;14.25;10.00;;;4.80;99.90;;;;;;4993771;28;20050;-86
2022/04/17 06:10:04;;;;;;;13.05;10.18;;;5.00;99.90;;;;;;4975278;28;20500;-85
2022/04/17 06:12:30;;;;;;;11.77;9.73;;;5.30;99.90;;;;;;4992699;28;20088;-86
2022/04/17 06:14:56;;;;;;;13.45;9.65;;;5.50;99.90;;;;;;4996108;28;20086;-86
2022/04/17 06:17:22;;;;;;;14.23;9.15;;;5.80;99.90;;;;;;4992805;28;20041;-84
2022/04/17 06:19:48;;;;;;;17.55;9.88;;;6.10;99.90;;;;;;5009142;28;20069;-85
2022/04/17 06:22:13;;;;;;;12.10;9.68;;;6.20;99.90;;;;;;4994236;28;20485;-86
2022/04/17 06:24:39;;;;;;;15.68;10.30;;;6.50;99.90;;;;;;4993718;28;20042;-86
2022/04/17 06:27:05;;;;;;;13.40;9.50;;;6.70;99.90;;;;;;4994200;28;20058;-86
2022/04/17 06:29:31;;;;;;;14.07;9.85;;;6.90;99.90;;;;;;5008841;28;20038;-85
2022/04/17 06:31:57;;;;;;;11.65;9.50;;;7.10;99.90;;;;;;4990194;28;20422;-85
2022/04/17 06:34:23;;;;;;;15.65;10.20;;;7.10;99.90;;;;;;5010956;28;20161;-86
2022/04/17 06:36:48;;;;;;;13.00;10.07;;;7.20;99.90;;;;;;4993320;28;20052;-85
2022/04/17 06:39:14;;;;;;;12.73;9.32;;;7.20;99.90;;;;;;5008803;28;20088;-90
2022/04/17 06:41:40;;;;;;;15.07;10.43;;;7.30;99.90;;;;;;5010344;28;20052;-85
2022/04/17 06:44:05;;;;;;;13.65;10.85;;;7.30;99.90;;;;;;4995495;28;20050;-86
2022/04/17 06:46:32;;;;;;;12.60;9.80;;;7.30;99.90;;;;;;4974983;28;20061;-86
2022/04/17 06:48:58;;;;;;;13.82;9.73;;;7.30;99.90;;;;;;4990959;28;20199;-84
2022/04/17 06:51:25;;;;;;;16.48;10.20;;;7.40;99.90;;;;;;5009639;28;20222;-86
2022/04/17 06:53:52;;;;;;;15.15;10.23;;;7.40;99.90;;;;;;4987207;28;20593;-86
2022/04/17 06:56:21;;;;;;;12.98;10.32;;;7.40;99.90;;;;;;4983498;28;20665;-84
2022/04/17 06:58:50;;;;;;;16.02;10.10;;;7.40;99.90;;;;;;4969134;28;20082;-82
2022/04/17 07:01:16;;;;;;;15.90;10.10;;;7.40;99.90;;;;;;4985663;28;20085;-85
2022/04/17 07:03:42;;;;;;;13.20;9.27;;;7.40;99.90;;;;;;4977758;28;20136;-86
2022/04/17 07:06:08;;;;;;;14.38;9.88;;;7.40;99.90;;;;;;4970986;28;20050;-86
2022/04/17 07:08:33;;;;;;;13.60;9.77;;;7.30;99.90;;;;;;4995740;28;20080;-86
2022/04/17 07:10:59;;;;;;;13.32;9.50;;;7.40;99.90;;;;;;4966824;28;20038;-86
2022/04/17 07:13:26;;;;;;;14.88;9.95;;;7.30;99.90;;;;;;4986029;28;20041;-90
2022/04/17 07:15:52;;;;;;;13.65;10.32;;;7.40;99.90;;;;;;5000204;28;20066;-84
2022/04/17 07:18:18;;;;;;;14.07;9.60;;;7.40;99.90;;;;;;4974828;28;20052;-83
2022/04/17 07:20:43;;;;;;;13.05;9.43;;;7.40;99.90;;;;;;5009763;28;20143;-83
2022/04/17 07:23:09;;;;;;;11.95;9.40;;;7.50;99.90;;;;;;4976449;28;20116;-84
2022/04/17 07:25:36;;;;;;;14.10;9.57;;;7.50;99.90;;;;;;4978121;28;20045;-84
2022/04/17 07:28:02;;;;;;;13.05;9.75;;;7.50;99.90;;;;;;4959597;28;20141;-84
2022/04/17 07:30:31;;;;;;;15.80;9.40;;;7.60;99.90;;;;;;5010304;28;20128;-84
2022/04/17 07:32:58;;;;;;;13.10;9.50;;;7.70;99.90;;;;;;5009785;28;20049;-83
2022/04/17 07:35:26;;;;;;;13.68;9.40;;;7.70;99.90;;;;;;5010081;28;20045;-83
2022/04/17 07:37:53;;;;;;;13.40;9.00;;;7.80;99.90;;;;;;4977058;28;20079;-83
2022/04/17 07:40:22;;;;;;;14.20;8.93;;;7.80;99.90;;;;;;4977852;28;20069;-84
2022/04/17 07:42:50;;;;;;;12.68;8.70;;;7.90;99.90;;;;;;4978040;28;20042;-84
2022/04/17 07:45:16;;;;;;;10.98;8.25;;;8.00;99.90;;;;;;5009542;28;20120;-84
2022/04/17 07:47:42;;;;;;;10.07;7.78;;;8.20;99.90;;;;;;4991826;28;20081;-84
2022/04/17 07:50:09;;;;;;;11.27;8.20;;;8.30;99.90;;;;;;5009359;28;20046;-83
2022/04/17 07:52:35;;;;;;;12.68;8.05;;;8.30;99.90;;;;;;5009615;28;20045;-83
2022/04/17 07:55:03;;;;;;;11.32;8.25;;;8.40;99.90;;;;;;5009341;28;20060;-84
2022/04/17 07:57:29;;;;;;;10.30;7.90;;;8.50;99.90;;;;;;4993777;28;20493;-83
2022/04/17 07:59:55;;;;;;;10.75;7.90;;;8.60;99.90;;;;;;4993269;28;20137;-84
2022/04/17 08:02:28;;;;;;;10.93;8.35;;;8.70;99.90;;;;;;4977212;28;20060;-83
2022/04/17 08:04:55;;;;;;;14.90;7.78;;;8.70;99.90;;;;;;4978639;28;20085;-84
2022/04/17 08:07:21;;;;;;;9.27;7.03;;;8.90;99.90;;;;;;4993590;28;20053;-84
2022/04/17 08:09:47;;;;;;;12.13;7.88;;;9.00;99.90;;;;;;4993673;28;20057;-84
2022/04/17 08:12:13;;;;;;;9.05;7.45;;;9.10;99.90;;;;;;4976671;28;20089;-84
2022/04/17 08:14:39;;;;;;;10.32;7.70;;;9.10;99.90;;;;;;4976936;28;20054;-84
2022/04/17 08:17:05;;;;;;;13.07;7.57;;;9.30;99.90;;;;;;4976575;28;20486;-84
2022/04/17 08:19:32;;;;;;;12.70;7.45;;;9.30;99.60;;;;;;5009694;28;20054;-84
2022/04/17 08:22:00;;;;;;;10.98;7.22;;;9.40;98.50;;;;;;4976792;28;20077;-83
2022/04/17 08:24:26;;;;;;;9.98;6.30;;;9.50;97.90;;;;;;4993270;28;20506;-83
2022/04/17 08:26:54;;;;;;;10.68;6.72;;;9.60;95.80;;;;;;4992824;28;20069;-83
2022/04/17 08:29:20;;;;;;;10.07;6.70;;;9.70;93.20;;;;;;5008690;28;20054;-83
2022/04/17 08:31:46;;;;;;;7.35;6.07;;;10.00;90.30;;;;;;4992770;28;20056;-84
2022/04/17 08:34:11;;;;;;;9.68;6.28;;;10.10;87.40;;;;;;4992857;28;20046;-84
2022/04/17 08:36:37;;;;;;;9.63;6.32;;;10.20;86.00;;;;;;4976869;28;20069;-84
2022/04/17 08:39:03;;;;;;;9.32;6.00;;;10.30;84.90;;;;;;4992388;28;20061;-84
2022/04/17 08:41:31;;;;;;;8.75;6.22;;;10.40;81.20;;;;;;4992548;28;20049;-83
2022/04/17 08:43:57;;;;;;;11.18;6.75;;;10.60;78.90;;;;;;5009047;28;20044;-83
2022/04/17 08:46:23;;;;;;;9.32;5.75;;;10.70;78.30;;;;;;4976553;28;20046;-83
2022/04/17 08:48:51;;;;;;;6.85;5.93;;;10.80;76.80;;;;;;5009227;28;20053;-83
2022/04/17 08:51:18;;;;;;;8.02;6.10;;;10.90;75.30;;;;;;4992141;28;20685;-83
2022/04/17 08:53:45;;;;;;;9.75;6.03;;;11.10;73.90;;;;;;5009070;28;20550;-83
2022/04/17 08:56:11;;;;;;;8.43;5.90;;;11.30;72.40;;;;;;5008759;28;20678;-84
2022/04/17 08:58:36;;;;;;;8.27;5.72;;;11.40;72.50;;;;;;5008917;28;20049;-83
2022/04/17 09:01:03;;;;;;;8.65;6.00;;;11.60;71.50;;;;;;4991939;28;20447;-84
2022/04/17 09:03:29;;;;;;;8.70;5.97;;;11.90;68.80;;;;;;4992538;28;20072;-83
2022/04/17 09:05:56;;;;;;;8.43;6.10;;;12.00;69.00;;;;;;4992742;28;20080;-84
2022/04/17 09:08:22;;;;;;;9.02;5.95;;;12.20;67.80;;;;;;5008058;28;20487;-84
2022/04/17 09:10:58;;;;;;;7.00;5.80;;;12.40;67.30;;;;;;4992473;28;20042;-83
2022/04/17 09:13:29;;;;;;;8.20;6.13;;;12.60;65.30;;;;;;4992708;28;20096;-84
2022/04/17 09:15:55;;;;;;;8.63;5.47;;;12.80;62.50;;;;;;4992851;28;20084;-84
2022/04/17 09:18:21;;;;;;;9.25;5.80;;;13.50;62.30;;;;;;5008167;28;20054;-84
2022/04/17 09:20:47;;;;;;;7.65;5.32;;;14.90;57.00;;;;;;4992464;28;20482;-84
2022/04/17 09:23:13;;;;;;;8.98;5.63;;;16.40;54.00;;;;;;4992040;28;20038;-84
2022/04/17 09:25:39;;;;;;;6.75;5.00;;;17.60;49.30;;;;;;5008004;28;20050;-83
2022/04/17 09:28:06;;;;;;;7.40;5.30;;;18.50;47.20;;;;;;4973712;28;20056;-87
2022/04/17 09:30:40;;;;;;;6.03;4.93;;;19.30;45.80;;;;;;4984061;28;20073;-89
2022/04/17 09:33:07;;;;;;;6.65;5.18;;;20.10;42.40;;;;;;4977165;28;20052;-92
2022/04/17 09:35:32;;;;;;;5.22;4.63;;;20.80;43.00;;;;;;5006116;28;20052;-89
2022/04/17 09:37:59;;;;;;;6.63;4.25;;;21.40;40.00;;;;;;4998371;28;20042;-87
2022/04/17 09:40:29;;;;;;;7.25;4.65;;;21.80;38.50;;;;;;4999086;28;20069;-90
2022/04/17 09:43:12;;;;;;;6.10;4.00;;;22.20;36.10;;;;;;4986915;28;20042;-90
2022/04/17 09:46:01;;;;;;;6.05;3.67;;;22.50;33.90;;;;;;4990397;28;20143;-85
2022/04/17 09:48:35;;;;;;;5.30;4.13;;;22.90;33.10;;;;;;4984045;28;20115;-86
2022/04/17 09:51:25;;;;;;;6.63;4.57;;;23.00;31.80;;;;;;5007961;28;20060;-86
2022/04/17 09:54:00;;;;;;;4.57;3.70;;;23.50;33.40;;;;;;5008662;28;20054;-86
2022/04/17 09:56:33;;;;;;;5.47;3.60;;;24.00;30.30;;;;;;4992147;28;20499;-86
2022/04/17 09:59:01;;;;;;;3.63;3.33;;;24.20;28.70;;;;;;4992022;28;20454;-86
2022/04/17 10:01:27;;;;;;;4.50;3.20;;;24.40;29.40;;;;;;5008015;28;20042;-85
2022/04/17 10:03:54;;;;;;;4.35;3.47;;;24.50;28.20;;;;;;4975381;28;20395;-86
2022/04/17 10:06:23;;;;;;;4.95;2.50;;;24.60;28.50;;;;;;4992011;28;20616;-85
2022/04/17 10:08:51;;;;;;;3.50;2.78;;;24.90;27.80;;;;;;4992500;28;20501;-85
2022/04/17 10:11:20;;;;;;;3.95;2.50;;;25.20;26.50;;;;;;5008331;28;20399;-85
2022/04/17 10:13:47;;;;;;;3.95;2.67;;;25.50;26.40;;;;;;4992683;28;20053;-86
2022/04/17 10:16:19;;;;;;;2.72;2.03;;;25.60;25.10;;;;;;4976373;28;20042;-85
2022/04/17 10:18:45;;;;;;;4.60;2.40;;;25.70;24.30;;;;;;4992693;28;20065;-85
2022/04/17 10:21:13;;;;;;;3.47;2.70;;;25.70;24.70;;;;;;5008634;28;20724;-86
2022/04/17 10:23:43;;;;;;;3.08;2.78;;;25.90;24.60;;;;;;5009017;28;20125;-86
2022/04/17 10:26:13;;;;;;;3.20;2.67;;;26.30;24.90;;;;;;4991807;28;20060;-86
2022/04/17 10:28:44;;;;;;;4.32;2.42;;;26.80;24.60;;;;;;4992567;28;20065;-86
2022/04/17 10:31:20;;;;;;;2.80;2.40;;;26.80;23.10;;;;;;4992341;28;20129;-87
2022/04/17 10:34:07;;;;;;;3.42;2.50;;;26.70;21.70;;;;;;5008875;28;20045;-86
2022/04/17 10:36:41;;;;;;;3.42;2.72;;;26.50;22.00;;;;;;5008823;28;20088;-86
2022/04/17 10:39:13;;;;;;;3.30;2.58;;;26.20;23.30;;;;;;5011247;28;20050;-86
2022/04/17 10:41:40;;;;;;;3.13;2.80;;;26.60;22.80;;;;;;4996112;28;20038;-86
2022/04/17 10:44:10;;;;;;;5.93;3.25;;;26.90;23.20;;;;;;4979357;28;20116;-85
2022/04/17 10:46:49;;;;;;;2.72;2.53;;;27.20;22.70;;;;;;5012118;28;20050;-86
2022/04/17 10:49:18;;;;;;;3.00;2.30;;;27.50;19.80;;;;;;4995234;28;20614;-86
2022/04/17 10:51:56;;;;;;;4.20;3.00;;;27.30;21.70;;;;;;5011825;28;20048;-86
2022/04/17 10:54:22;;;;;;;5.22;3.20;;;27.60;21.80;;;;;;4995544;28;20054;-86
2022/04/17 10:56:54;;;;;;;5.15;3.45;;;27.70;22.20;;;;;;5011877;28;20123;-87
2022/04/17 10:59:26;;;;;;;3.67;2.40;;;28.10;22.50;;;;;;4994285;28;20057;-86
2022/04/17 11:02:18;;;;;;;3.72;2.85;;;28.30;21.60;;;;;;5011694;28;20096;-85
2022/04/17 11:04:54;;;;;;;4.07;3.00;;;28.70;21.70;;;;;;5004891;28;20053;-86
2022/04/17 11:07:27;;;;;;;4.28;3.30;;;28.80;21.10;;;;;;5011341;28;20144;-86
2022/04/17 11:10:20;;;;;;;4.53;3.80;;;29.00;21.00;;;;;;5011770;28;20112;-86
2022/04/17 11:12:54;;;;;;;4.43;3.92;;;29.00;21.60;;;;;;4995276;28;20058;-86
2022/04/17 11:15:22;;;;;;;4.05;3.08;;;29.40;21.50;;;;;;4994658;28;20127;-86
2022/04/17 11:17:50;;;;;;;4.40;3.25;;;29.30;20.40;;;;;;4995423;28;20050;-87
2022/04/17 11:20:16;;;;;;;4.18;3.30;;;29.30;20.40;;;;;;4978686;28;20133;-86
2022/04/17 11:22:42;;;;;;;4.40;3.25;;;29.40;20.70;;;;;;5011460;28;20108;-86
2022/04/17 11:25:12;;;;;;;4.60;3.63;;;29.50;20.60;;;;;;4994805;28;20049;-86
2022/04/17 11:27:41;;;;;;;4.40;3.42;;;29.30;20.80;;;;;;4994545;28;20495;-87
2022/04/17 11:30:27;;;;;;;4.50;3.60;;;29.20;20.70;;;;;;4994570;28;20141;-86
2022/04/17 11:32:54;;;;;;;5.22;3.75;;;29.20;21.80;;;;;;5000784;28;20057;-87
2022/04/17 11:35:26;;;;;;;6.13;4.32;;;29.10;20.40;;;;;;5010942;28;20085;-87
2022/04/17 11:38:01;;;;;;;6.85;4.65;;;28.80;20.90;;;;;;5011248;28;20060;-86
2022/04/17 11:40:28;;;;;;;5.05;3.95;;;29.00;21.40;;;;;;4994475;28;20042;-86
2022/04/17 11:42:55;;;;;;;4.78;4.00;;;29.50;20.70;;;;;;5011088;28;20053;-86
2022/04/17 11:45:28;;;;;;;5.00;3.80;;;29.80;20.20;;;;;;5010435;28;20053;-86
2022/04/17 11:47:56;;;;;;;4.72;4.18;;;29.80;20.40;;;;;;4995197;28;20053;-86
2022/04/17 11:50:27;;;;;;;6.68;3.40;;;30.10;20.70;;;;;;4993497;28;20045;-87
2022/04/17 11:52:58;;;;;;;5.68;4.40;;;30.70;20.30;;;;;;5011089;28;20050;-87
2022/04/17 11:55:30;;;;;;;4.78;3.90;;;31.10;20.10;;;;;;5010366;28;20041;-87
2022/04/17 11:57:57;;;;;;;4.68;3.95;;;31.40;19.80;;;;;;4994577;28;20064;-86
2022/04/17 12:00:24;;;;;;;4.15;3.17;;;31.40;19.40;;;;;;4977907;28;20050;-86
2022/04/17 12:03:01;;;;;;;5.15;3.75;;;31.40;18.80;;;;;;5010955;28;20100;-86
2022/04/17 12:05:28;;;;;;;3.63;2.97;;;31.40;18.80;;;;;;5010287;28;20053;-87
2022/04/17 12:08:06;;;;;;;4.22;3.33;;;31.40;18.70;;;;;;5010074;28;20100;-86
2022/04/17 12:10:32;;;;;;;4.97;2.83;;;31.40;18.90;;;;;;5009370;28;20096;-85
2022/04/17 12:13:20;;;;;;;4.75;3.30;;;31.50;19.20;;;;;;5009900;28;20436;-86
2022/04/17 12:15:57;;;;;;;4.10;3.67;;;31.80;19.20;;;;;;5009976;28;20046;-87
2022/04/17 12:18:22;;;;;;;3.80;3.50;;;32.10;18.80;;;;;;4993318;28;20054;-87
2022/04/17 12:21:04;;;;;;;4.63;3.50;;;32.30;18.70;;;;;;4993397;28;20046;-88
2022/04/17 12:23:32;;;;;;;4.63;3.88;;;32.40;19.40;;;;;;4992872;28;20107;-87
2022/04/17 12:25:59;;;;;;;4.25;3.70;;;32.10;18.00;;;;;;5009559;28;20046;-87
2022/04/17 12:28:26;;;;;;;4.13;3.72;;;32.00;18.40;;;;;;5008559;28;20056;-86
2022/04/17 12:30:52;;;;;;;4.22;3.70;;;32.00;17.90;;;;;;4993050;28;20046;-86
2022/04/17 12:33:29;;;;;;;5.70;4.10;;;32.10;18.00;;;;;;5009096;28;20507;-86
2022/04/17 12:36:02;;;;;;;4.70;3.80;;;32.20;18.10;;;;;;5009624;28;20089;-87
2022/04/17 12:38:28;;;;;;;4.63;3.80;;;32.30;17.80;;;;;;4992548;28;20788;-87
2022/04/17 12:40:53;;;;;;;4.32;3.53;;;32.10;18.40;;;;;;4993124;28;20046;-86
2022/04/17 12:43:20;;;;;;;3.92;3.53;;;32.30;18.40;;;;;;4992781;28;20037;-88
2022/04/17 12:46:04;;;;;;;4.20;3.75;;;32.20;18.40;;;;;;5009395;28;20128;-87
2022/04/17 12:48:35;;;;;;;4.00;3.60;;;32.30;18.80;;;;;;4992334;28;20136;-86
2022/04/17 12:51:05;;;;;;;4.82;3.88;;;32.30;18.10;;;;;;4992597;28;20088;-85
2022/04/17 12:53:36;;;;;;;5.20;3.78;;;32.40;18.20;;;;;;5008603;28;20053;-87
2022/04/17 12:56:02;;;;;;;4.20;3.80;;;32.80;18.20;;;;;;5009253;28;20085;-86
2022/04/17 12:58:28;;;;;;;3.55;3.25;;;32.70;17.20;;;;;;4992525;28;20399;-83
2022/04/17 13:00:56;;;;;;;4.72;3.55;;;32.50;17.00;;;;;;5008369;28;20056;-84
2022/04/17 13:03:34;;;;;;;3.90;3.28;;;32.40;16.80;;;;;;5008497;28;20093;-83